Latest Weather Observations for Moree

IDN60801

Issued at 11:43 pm EDT Wednesday 27 January 2021 (issued every 10 minutes, with the page automatically refreshed every 10 minutes)

About weather observations | Map of weather stations | Latest weather observations for NSW | Other Formats
Station Details ID: 053115 Name: MOREE AERO Lat: -29.49 Lon: 149.85 Height: 213.0 m
Data from the previous 72 hours. | See also: Recent months at Moree
Date/Time
EDT
Temp
°C
App
Temp
°C
Dew
Point
°C
Rel
Hum
%
Delta-T
°C
Wind Press
QNH
hPa
Press
MSL
hPa
Rain since
9am
mm
Dir  Spd
km/h
Gust
km/h
Spd
kts
Gust
kts
27/11:30pm 27.4 26.9 18.7 59 5.6 NE 19 24 10 13 1009.4 1008.1 0.0
27/11:00pm 27.4 25.2 18.7 59 5.6 NE 28 35 15 19 1009.6 1008.2 0.0
27/10:30pm 28.7 25.8 17.9 52 6.9 ENE 30 39 16 21 1009.4 1008.1 0.0
27/10:00pm 29.8 27.0 17.3 47 8.0 E 28 35 15 19 1008.9 1007.6 0.0
27/09:30pm 30.7 26.5 16.3 42 9.1 E 33 52 18 28 1008.7 1007.4 0.0
27/09:09pm 31.7 29.4 15.6 37 10.1 ENE 22 54 12 29 1008.4 1007.1 0.0
27/09:07pm 31.8 30.3 15.3 37 10.3 ENE 17 43 9 23 1008.3 1007.0 0.0
27/09:00pm 31.5 30.5 14.6 36 10.4 NE 13 17 7 9 1007.7 1006.3 0.0
27/08:30pm 31.8 30.8 13.5 32 11.1 SSE 11 13 6 7 1007.3 1005.9 0.0
27/08:00pm 33.4 32.2 12.9 28 12.4 S 11 11 6 6 1007.0 1005.6 0.0
27/07:30pm 35.0 33.7 12.6 26 13.6 SSW 11 13 6 7 1006.8 1005.4 0.0
27/07:00pm 35.5 34.4 13.1 26 13.7 S 11 15 6 8 1006.5 1005.1 0.0
27/06:30pm 35.4 33.7 12.4 25 13.9 S 13 17 7 9 1005.9 1004.5 0.0
27/06:00pm 36.1 35.0 13.0 25 14.2 S 11 19 6 10 1005.8 1004.4 0.0
27/05:30pm 38.0 37.1 12.6 22 15.6 E 9 17 5 9 1005.9 1004.5 0.0
27/05:00pm 37.9 36.8 13.2 23 15.3 E 11 17 6 9 1006.1 1004.7 0.0
27/04:30pm 38.3 37.6 12.1 21 16.0 E 7 13 4 7 1006.3 1004.9 0.0
27/04:00pm 38.3 36.3 12.8 22 15.7 NE 15 26 8 14 1006.6 1005.2 0.0
27/03:30pm 36.4 34.7 12.6 24 14.5 NE 13 17 7 9 1006.9 1005.5 0.0
27/03:00pm 36.4 35.9 12.6 24 14.5 SSW 7 11 4 6 1007.2 1005.8 0.0
27/02:30pm 38.2 37.4 14.1 24 15.1 ENE 11 19 6 10 1007.5 1006.1 0.0
27/02:00pm 37.0 35.7 13.7 25 14.5 NNE 13 22 7 12 1007.9 1006.6 0.0
27/01:30pm 36.8 36.6 14.7 26 13.9 NE 9 13 5 7 1008.3 1007.0 0.0
27/01:00pm 35.4 34.4 14.6 28 13.0 NNE 13 24 7 13 1008.6 1007.3 0.0
27/12:30pm 35.1 34.4 15.4 30 12.4 NNE 13 26 7 14 1008.8 1007.5 0.0
27/12:00pm 34.5 33.8 16.4 34 11.6 NNE 15 20 8 11 1009.2 1007.9 0.0
27/11:30am 32.5 30.6 15.1 35 10.8 NNE 19 28 10 15 1009.3 1008.0 0.0
27/11:00am 31.5 28.8 15.5 38 10.0 NNE 24 33 13 18 1009.6 1008.2 0.0
27/10:30am 31.6 29.5 17.1 41 9.3 NNE 24 32 13 17 1009.4 1008.1 0.0
27/10:00am 30.4 28.3 17.1 44 8.5 NNE 24 32 13 17 1009.4 1008.1 0.0
27/09:30am 27.0 25.1 16.6 53 6.5 NNE 22 30 12 16 1009.7 1008.3 0.0
27/09:00am 27.0 24.9 16.3 52 6.7 NNE 22 30 12 16 1009.4 1008.1 0.0
27/08:30am 25.7 24.0 16.3 56 5.8 NE 20 26 11 14 1009.2 1007.9 0.0
27/08:00am 25.1 22.9 16.0 57 5.6 NE 22 32 12 17 1009.2 1007.9 0.0
27/07:30am 24.8 22.6 16.0 58 5.4 NE 22 30 12 16 1008.8 1007.5 0.0
27/07:00am 23.9 22.7 16.2 62 4.7 NE 17 22 9 12 1008.5 1007.2 0.0
27/06:30am 23.7 21.9 16.0 62 4.7 NE 20 26 11 14 1007.9 1006.6 0.0
27/06:00am 23.8 22.2 16.1 62 4.7 NE 19 24 10 13 1007.6 1006.2 0.0
27/05:30am 23.7 22.4 15.7 61 4.9 NE 17 19 9 10 1007.3 1005.9 0.0
27/05:00am 24.1 22.6 15.3 58 5.3 NE 17 20 9 11 1006.9 1005.5 0.0
27/04:30am 24.5 22.9 15.1 55 5.7 NE 17 26 9 14 1006.8 1005.4 0.0
27/04:00am 25.0 23.8 15.0 53 6.1 NE 15 19 8 10 1006.7 1005.3 0.0
27/03:30am 25.5 24.2 14.9 52 6.4 NNE 15 19 8 10 1006.6 1005.2 0.0
27/03:00am 25.9 24.1 14.4 49 6.9 NNE 17 24 9 13 1006.3 1004.9 0.0
27/02:30am 26.7 24.2 14.1 46 7.6 NE 20 28 11 15 1006.2 1004.8 0.0
27/02:00am 26.8 27.4 14.2 46 7.6 ENE 4 9 2 5 1006.1 1004.7 0.0
27/01:30am 27.1 26.7 14.1 44 7.8 N 9 11 5 6 1005.9 1004.5 0.0
27/01:00am 27.1 25.8 13.8 44 8.0 NNE 13 15 7 8 1005.8 1004.4 0.0
27/12:30am 27.3 25.5 13.3 42 8.3 NNE 15 17 8 9 1005.7 1004.3 0.0
27/12:00am 27.9 25.3 13.1 40 8.8 NNE 19 24 10 13 1005.6 1004.2 0.0
 
Date/Time
EDT
Temp
°C
App
Temp
°C
Dew
Point
°C
Rel
Hum
%
Delta-T
°C
Wind Press
QNH
hPa
Press
MSL
hPa
Rain since
9am
mm
Dir  Spd
km/h
Gust
km/h
Spd
kts
Gust
kts
26/11:30pm 28.5 25.8 12.8 38 9.3 NNE 19 26 10 14 1005.6 1004.2 0.0
26/11:00pm 28.7 26.4 13.0 38 9.4 NNE 17 20 9 11 1005.6 1004.2 0.0
26/10:30pm 29.4 27.2 13.2 37 9.7 NNE 17 20 9 11 1005.5 1004.1 0.0
26/10:00pm 28.9 27.4 13.2 38 9.4 NNE 13 17 7 9 1005.4 1004.0 0.0
26/09:30pm 29.2 28.2 13.4 38 9.5 NNE 11 13 6 7 1005.1 1003.7 0.0
26/09:00pm 30.3 29.2 13.1 34 10.3 NNE 11 13 6 7 1004.7 1003.3 0.0
26/08:30pm 31.0 29.8 12.8 32 10.9 NNE 11 13 6 7 1004.4 1003.1 0.0
26/08:00pm 32.2 30.9 12.4 30 11.9 NNE 11 13 6 7 1004.0 1002.7 0.0
26/07:30pm 33.2 32.7 13.8 31 11.9 N 9 9 5 5 1003.6 1002.2 0.0
26/07:00pm 33.9 32.7 12.8 28 12.8 NNW 11 15 6 8 1003.3 1001.9 0.0
26/06:30pm 34.8 33.3 13.0 26 13.3 NNW 13 17 7 9 1003.1 1001.7 0.0
26/06:00pm 35.7 33.9 12.0 24 14.3 NNW 13 19 7 10 1003.0 1001.6 0.0
26/05:30pm 36.8 35.1 13.5 24 14.4 NE 15 22 8 12 1003.1 1001.7 0.0
26/05:00pm 36.6 34.6 12.8 24 14.6 N 15 28 8 15 1003.2 1001.8 0.0
26/04:30pm 36.7 35.2 14.1 26 14.1 NNW 15 22 8 12 1003.5 1002.1 0.0
26/04:00pm 36.7 35.0 13.5 25 14.4 NNW 15 30 8 16 1003.9 1002.6 0.0
26/03:30pm 36.1 34.0 13.6 26 13.9 NW 17 32 9 17 1004.2 1002.9 0.0
26/03:00pm 36.4 35.3 13.2 25 14.3 N 11 22 6 12 1004.5 1003.2 0.0
26/02:30pm 35.3 32.4 12.9 26 13.7 N 20 32 11 17 1005.0 1003.6 0.0
26/02:00pm 35.1 32.1 12.1 25 13.9 NNW 19 28 10 15 1005.6 1004.2 0.0
26/01:30pm 32.6 30.7 14.2 32 11.3 NNW 17 28 9 15 1005.9 1004.5 0.0
26/01:00pm 34.3 31.1 15.2 31 12.0 NNW 26 37 14 20 1006.4 1005.0 0.0
26/12:30pm 33.4 30.4 15.8 34 11.1 NNE 26 41 14 22 1006.9 1005.5 0.0
26/12:00pm 32.6 30.0 16.0 36 10.5 N 24 33 13 18 1007.4 1006.0 0.0
26/11:30am 31.4 28.2 16.2 40 9.6 NNE 28 37 15 20 1007.8 1006.4 0.0
26/11:00am 30.5 27.4 16.5 43 8.9 N 28 33 15 18 1008.0 1006.7 0.0
26/10:30am 29.3 25.5 16.8 47 7.9 NNE 32 44 17 24 1008.1 1006.8 0.0
26/10:00am 28.1 24.0 16.4 49 7.3 NNE 33 48 18 26 1008.3 1007.0 0.0
26/09:30am 27.0 22.8 16.3 52 6.7 NNE 33 46 18 25 1008.4 1007.1 0.0
26/09:00am 25.8 21.8 16.1 55 6.0 NNE 32 44 17 24 1008.5 1007.2 0.0
26/08:30am 24.9 20.3 16.1 58 5.4 NNE 35 50 19 27 1008.5 1007.2 0.0
26/08:00am 24.0 20.0 16.3 62 4.7 NNE 32 43 17 23 1008.3 1007.0 0.0
26/07:30am 23.2 19.2 16.3 65 4.2 NNE 32 41 17 22 1008.1 1006.8 0.0
26/07:00am 22.4 18.9 16.4 69 3.7 NNE 30 37 16 20 1007.8 1006.4 0.0
26/06:30am 22.1 18.6 16.6 71 3.4 NNE 30 39 16 21 1007.4 1006.0 0.0
26/06:00am 22.3 18.5 16.8 71 3.4 NNE 32 39 17 21 1007.1 1005.7 0.0
26/05:30am 22.6 19.3 16.9 70 3.5 NNE 30 37 16 20 1006.9 1005.5 0.0
26/05:00am 22.8 19.5 17.0 70 3.6 NE 30 37 16 20 1006.6 1005.2 0.0
26/04:30am 23.0 20.1 17.0 69 3.7 NE 28 37 15 20 1006.5 1005.1 0.0
26/04:00am 23.3 20.3 16.8 67 4.0 NE 28 35 15 19 1006.5 1005.1 0.0
26/03:30am 23.4 20.3 15.7 62 4.7 NE 26 32 14 17 1006.6 1005.2 0.0
26/03:00am 23.9 21.0 15.1 58 5.3 NE 24 32 13 17 1006.9 1005.5 0.0
26/02:30am 24.1 21.9 14.8 56 5.6 NNE 20 28 11 15 1007.2 1005.8 0.0
26/02:00am 24.1 21.0 13.3 51 6.3 NNE 22 28 12 15 1007.1 1005.7 0.0
26/01:30am 23.5 22.3 12.8 51 6.2 NNE 11 13 6 7 1006.8 1005.4 0.0
26/01:00am 24.0 22.6 12.3 48 6.8 N 11 13 6 7 1007.0 1005.6 0.0
26/12:30am 24.6 22.7 11.9 45 7.3 N 13 17 7 9 1007.2 1005.8 0.0
26/12:00am 25.8 23.5 11.6 41 8.2 N 15 19 8 10 1007.4 1006.0 0.0
 
Date/Time
EDT
Temp
°C
App
Temp
°C
Dew
Point
°C
Rel
Hum
%
Delta-T
°C
Wind Press
QNH
hPa
Press
MSL
hPa
Rain since
9am
mm
Dir  Spd
km/h
Gust
km/h
Spd
kts
Gust
kts
25/11:30pm 25.7 23.8 11.8 42 8.0 N 13 15 7 8 1007.3 1005.9 0.0
25/11:00pm 25.5 24.0 12.0 43 7.8 N 11 13 6 7 1007.5 1006.1 0.0
25/10:30pm 25.8 24.1 12.3 43 7.8 N 13 17 7 9 1007.4 1006.0 0.0
25/10:00pm 27.1 25.3 12.0 39 8.8 N 13 17 7 9 1007.1 1005.7 0.0
25/09:30pm 27.7 25.9 12.1 38 9.1 N 13 19 7 10 1006.8 1005.4 0.0
25/09:00pm 27.8 26.0 12.2 38 9.2 N 13 15 7 8 1006.6 1005.2 0.0
25/08:30pm 28.6 27.2 12.1 36 9.7 N 11 15 6 8 1006.3 1004.9 0.0
25/08:00pm 29.3 28.0 11.4 33 10.4 N 9 9 5 5 1006.2 1004.8 0.0
25/07:30pm 31.6 29.8 10.9 28 12.1 N 11 15 6 8 1006.2 1004.8 0.0
25/07:00pm 32.7 30.6 11.3 27 12.6 NNW 13 17 7 9 1006.1 1004.7 0.0
25/06:30pm 32.4 29.7 10.4 26 12.8 N 15 20 8 11 1006.0 1004.6 0.0
25/06:00pm 34.1 32.0 11.3 25 13.5 N 13 22 7 12 1006.0 1004.6 0.0
25/05:30pm 34.2 32.7 12.0 26 13.3 N 11 20 6 11 1006.1 1004.7 0.0
25/05:00pm 34.5 32.1 12.8 27 13.2 N 17 24 9 13 1006.4 1005.0 0.0
25/04:30pm 33.6 31.8 12.0 27 12.9 N 13 19 7 10 1006.8 1005.4 0.0
25/04:00pm 34.8 33.9 12.5 26 13.5 NE 9 15 5 8 1007.3 1005.9 0.0
25/03:30pm 34.4 32.2 12.1 26 13.4 NE 15 24 8 13 1007.8 1006.4 0.0
25/03:00pm 34.4 32.4 12.7 27 13.2 NE 15 24 8 13 1008.4 1007.1 0.0
25/02:30pm 35.0 34.1 13.8 28 13.1 ENE 11 19 6 10 1008.9 1007.6 0.0
25/02:00pm 32.5 32.0 13.7 32 11.5 ENE 9 19 5 10 1009.4 1008.1 0.0
25/01:30pm 34.2 33.2 15.6 32 11.7 NNW 15 22 8 12 1010.0 1008.6 0.0
25/01:00pm 32.1 30.9 15.1 35 10.6 N 15 22 8 12 1010.6 1009.2 0.0
25/12:30pm 31.9 30.3 15.0 36 10.5 NE 17 26 9 14 1011.1 1009.7 0.0
25/12:00pm 31.1 29.5 15.1 38 9.9 N 17 26 9 14 1011.7 1010.3 0.0
25/11:30am 30.4 29.1 16.8 44 8.6 NNE 19 26 10 14 1012.0 1010.6 0.0
25/11:00am 28.9 27.8 17.4 49 7.3 N 19 28 10 15 1012.5 1011.2 0.0
25/10:30am 28.0 26.7 17.2 52 6.8 NNE 20 30 11 16 1012.9 1011.6 0.0
25/10:00am 26.9 24.8 17.1 55 6.2 NNE 24 33 13 18 1013.0 1011.7 0.0
25/09:30am 25.8 24.1 18.0 62 5.0 NNE 24 32 13 17 1013.2 1011.9 0.0
25/09:00am 25.3 22.8 17.0 60 5.2 NNE 26 33 14 18 1013.1 1011.8 0.0
25/08:30am 24.3 21.0 17.1 64 4.5 NE 30 37 16 20 1013.0 1011.7 0.0
25/08:00am 23.1 20.4 16.6 67 4.0 NE 26 35 14 19 1012.8 1011.5 0.0
25/07:30am 22.0 19.9 16.3 70 3.5 NE 22 30 12 16 1012.6 1011.3 0.0
25/07:00am 20.7 19.4 15.7 73 3.0 NE 17 19 9 10 1012.4 1011.1 0.0
25/06:30am 19.8 19.2 15.7 77 2.5 NE 13 17 7 9 1012.2 1010.9 0.0
25/06:00am 20.0 19.3 15.4 75 2.7 NE 13 15 7 8 1011.7 1010.3 0.0
25/05:30am 20.2 19.2 15.6 75 2.8 NE 15 17 8 9 1011.3 1009.9 0.0
25/05:00am 21.0 19.7 15.8 72 3.1 NE 17 22 9 12 1011.0 1009.6 0.0
25/04:30am 21.3 20.0 15.8 71 3.3 NE 17 22 9 12 1010.9 1009.5 0.0
25/04:00am 21.7 19.8 15.3 67 3.8 NE 19 26 10 14 1010.9 1009.5 0.0
25/03:30am 21.7 20.0 14.6 64 4.2 NE 17 19 9 10 1010.8 1009.4 0.0
25/03:00am 22.0 19.6 13.9 60 4.8 NE 19 26 10 14 1010.8 1009.4 0.0
25/02:30am 21.5 20.0 13.2 59 4.8 NE 13 17 7 9 1011.3 1009.9 0.0
25/02:00am 21.4 19.7 12.5 57 5.1 NNE 13 15 7 8 1011.4 1010.0 0.0
25/01:30am 21.8 20.5 12.6 56 5.3 NE 11 13 6 7 1011.5 1010.1 0.0
25/01:00am 20.9 20.3 12.3 58 4.9 ENE 7 9 4 5 1011.8 1010.4 0.0
25/12:30am 21.7 22.1 11.4 52 5.8 CALM 0 2 0 1 1012.2 1010.9 0.0
25/12:00am 22.1 21.1 10.9 49 6.2 W 7 7 4 4 1012.0 1010.6 0.0

Other formats

Comma delimited format used in spreadsheet applications
http://www.bom.gov.au/fwo/IDN60801/IDN60801.95527.axf

JavaScript Object Notation format (JSON) in row-major order
http://www.bom.gov.au/fwo/IDN60801/IDN60801.95527.json

Data quality

Most of these data are generated automatically and are frequently updated. Quality checks on data are not normally performed. It is possible for incorrect values to appear. Refer to information at About Latest Weather Observations and please check the disclaimer before using these data.